Time,TemperatureF,DewpointF,PressureIn,WindDirection,WindDirectionDegrees,WindSpeedMPH,WindSpeedGustMPH,Humidity,HourlyPrecipIn,Conditions,Clouds,dailyrainin,SolarRadiationWatts/m^2,SoftwareType,DateUTC
2013-09-23 00:02:00,44.0,41.0,-100.00,SE,130,6.0,8.0,88,0.00,,,0.12,0.000000,,2013-09-23 06:02:00,
2013-09-23 00:13:00,44.0,41.0,-100.00,SE,130,6.0,8.0,88,0.00,,,0.12,0.000000,,2013-09-23 06:13:00,
2013-09-23 00:42:00,45.0,40.0,-100.00,SE,138,8.0,14.0,82,0.00,,,0.12,0.000000,,2013-09-23 06:42:00,
2013-09-23 00:52:00,45.0,40.0,-100.00,SE,138,8.0,14.0,82,0.00,,,0.12,0.000000,,2013-09-23 06:52:00,
2013-09-23 01:01:00,45.0,40.0,-100.00,SE,138,8.0,14.0,82,0.00,,,0.12,0.000000,,2013-09-23 07:01:00,
2013-09-23 01:11:00,45.0,40.0,-100.00,SE,138,8.0,14.0,82,0.00,,,0.12,0.000000,,2013-09-23 07:11:00,
2013-09-23 01:42:00,45.0,39.0,-100.00,SE,135,6.0,12.0,80,0.00,,,0.12,0.000000,,2013-09-23 07:42:00,
2013-09-23 01:52:00,45.0,39.0,-100.00,SE,135,6.0,12.0,80,0.00,,,0.12,0.000000,,2013-09-23 07:52:00,
2013-09-23 02:02:00,45.0,39.0,-100.00,SE,135,6.0,12.0,80,0.00,,,0.12,0.000000,,2013-09-23 08:02:00,
2013-09-23 02:11:00,45.0,39.0,-100.00,SE,135,6.0,12.0,80,0.00,,,0.12,0.000000,,2013-09-23 08:11:00,
2013-09-23 02:42:00,44.0,40.0,-100.00,ESE,122,6.0,9.0,85,0.00,,,0.12,0.000000,,2013-09-23 08:42:00,
2013-09-23 02:52:00,44.0,40.0,-100.00,ESE,122,6.0,9.0,85,0.00,,,0.12,0.000000,,2013-09-23 08:52:00,
2013-09-23 03:02:00,44.0,40.0,-100.00,ESE,122,6.0,9.0,85,0.00,,,0.12,0.000000,,2013-09-23 09:02:00,
2013-09-23 03:11:00,44.0,40.0,-100.00,ESE,122,6.0,9.0,85,0.00,,,0.12,0.000000,,2013-09-23 09:11:00,
2013-09-23 03:43:00,44.0,41.0,-100.00,SE,130,6.0,9.0,90,0.02,,,0.09,0.000000,,2013-09-23 09:43:00,
2013-09-23 03:53:00,44.0,41.0,-100.00,SE,130,6.0,9.0,90,0.02,,,0.09,0.000000,,2013-09-23 09:53:00,
2013-09-23 04:03:00,44.0,41.0,-100.00,SE,130,6.0,9.0,90,0.02,,,0.09,0.000000,,2013-09-23 10:03:00,
2013-09-23 04:12:00,44.0,41.0,-100.00,SE,130,6.0,9.0,90,0.02,,,0.09,0.000000,,2013-09-23 10:12:00,
2013-09-23 04:42:00,42.0,36.0,-100.00,SE,129,8.0,15.0,80,0.00,,,0.09,0.000000,,2013-09-23 10:42:00,
2013-09-23 04:52:00,42.0,36.0,-100.00,SE,129,8.0,15.0,80,0.00,,,0.09,0.000000,,2013-09-23 10:52:00,
2013-09-23 05:02:00,42.0,36.0,-100.00,SE,129,8.0,15.0,80,0.00,,,0.09,0.000000,,2013-09-23 11:02:00,
2013-09-23 05:12:00,42.0,36.0,-100.00,SE,129,8.0,15.0,80,0.00,,,0.09,0.000000,,2013-09-23 11:12:00,
2013-09-23 05:42:00,42.0,39.0,-100.00,SE,125,7.0,11.0,88,0.00,,,0.09,0.000000,,2013-09-23 11:42:00,
2013-09-23 05:52:00,42.0,39.0,-100.00,SE,125,7.0,11.0,88,0.00,,,0.09,0.000000,,2013-09-23 11:52:00,
2013-09-23 06:01:00,42.0,39.0,-100.00,SE,125,7.0,11.0,88,0.00,,,0.09,0.000000,,2013-09-23 12:01:00,
2013-09-23 06:11:00,42.0,39.0,-100.00,SE,125,7.0,11.0,88,0.00,,,0.09,0.000000,,2013-09-23 12:11:00,
2013-09-23 06:42:00,41.0,37.0,-100.00,South,172,4.0,9.0,87,0.00,,,0.09,0.000000,,2013-09-23 12:42:00,
2013-09-23 06:52:00,41.0,37.0,-100.00,South,172,4.0,9.0,87,0.00,,,0.09,0.000000,,2013-09-23 12:52:00,
2013-09-23 07:01:00,41.0,37.0,-100.00,South,172,4.0,9.0,87,0.00,,,0.09,0.000000,,2013-09-23 13:01:00,
2013-09-23 07:11:00,41.0,37.0,-100.00,South,172,4.0,9.0,87,0.00,,,0.09,0.000000,,2013-09-23 13:11:00,
2013-09-23 07:42:00,42.0,36.0,-100.00,SE,124,11.0,15.0,79,0.00,,,0.09,0.000000,,2013-09-23 13:42:00,
2013-09-23 07:52:00,42.0,36.0,-100.00,SE,124,11.0,15.0,79,0.00,,,0.09,0.000000,,2013-09-23 13:52:00,
2013-09-23 08:01:00,42.0,36.0,-100.00,SE,124,11.0,15.0,79,0.00,,,0.09,0.000000,,2013-09-23 14:01:00,
2013-09-23 08:11:00,42.0,36.0,-100.00,SE,124,11.0,15.0,79,0.00,,,0.09,0.000000,,2013-09-23 14:11:00,
2013-09-23 08:43:00,43.0,35.0,-100.00,SE,135,7.0,15.0,74,0.00,,,0.09,11.000000,,2013-09-23 14:43:00,
2013-09-23 08:52:00,43.0,35.0,-100.00,SE,135,7.0,15.0,74,0.00,,,0.09,11.000000,,2013-09-23 14:52:00,
2013-09-23 09:02:00,43.0,35.0,-100.00,SE,135,7.0,15.0,74,0.00,,,0.09,11.000000,,2013-09-23 15:02:00,
2013-09-23 09:11:00,43.0,35.0,-100.00,SE,135,7.0,15.0,74,0.00,,,0.09,11.000000,,2013-09-23 15:11:00,
2013-09-23 09:43:00,42.0,34.0,-100.00,SW,223,4.0,11.0,72,0.01,,,0.10,28.000000,,2013-09-23 15:43:00,
2013-09-23 09:54:00,42.0,34.0,-100.00,SW,223,4.0,11.0,72,0.01,,,0.10,28.000000,,2013-09-23 15:54:00,
2013-09-23 10:03:00,42.0,34.0,-100.00,SW,223,4.0,11.0,72,0.01,,,0.10,28.000000,,2013-09-23 16:03:00,
2013-09-23 10:12:00,42.0,34.0,-100.00,SW,223,4.0,11.0,72,0.01,,,0.10,28.000000,,2013-09-23 16:12:00,
2013-09-23 10:43:00,44.0,38.0,-100.00,ESE,105,4.0,6.0,79,0.01,,,0.11,113.000000,,2013-09-23 16:43:00,
2013-09-23 10:53:00,44.0,38.0,-100.00,ESE,105,4.0,6.0,79,0.01,,,0.11,113.000000,,2013-09-23 16:53:00,
2013-09-23 11:03:00,44.0,38.0,-100.00,ESE,105,4.0,6.0,79,0.01,,,0.11,113.000000,,2013-09-23 17:03:00,
2013-09-23 11:12:00,44.0,38.0,-100.00,ESE,105,4.0,6.0,79,0.01,,,0.11,113.000000,,2013-09-23 17:12:00,
2013-09-23 11:42:00,47.0,35.0,-100.00,SSW,201,11.0,19.0,64,0.00,,,0.11,266.000000,,2013-09-23 17:42:00,
2013-09-23 11:52:00,47.0,35.0,-100.00,SSW,201,11.0,19.0,64,0.00,,,0.11,266.000000,,2013-09-23 17:52:00,
2013-09-23 12:02:00,47.0,35.0,-100.00,SSW,201,11.0,19.0,64,0.00,,,0.11,266.000000,,2013-09-23 18:02:00,
2013-09-23 12:12:00,47.0,35.0,-100.00,SSW,201,11.0,19.0,64,0.00,,,0.11,266.000000,,2013-09-23 18:12:00,
2013-09-23 12:42:00,50.0,33.0,-100.00,SW,227,14.0,21.0,51,0.00,,,0.11,519.000000,,2013-09-23 18:42:00,
2013-09-23 12:52:00,50.0,33.0,-100.00,SW,227,14.0,21.0,51,0.00,,,0.11,519.000000,,2013-09-23 18:52:00,
2013-09-23 13:02:00,50.0,33.0,-100.00,SW,227,14.0,21.0,51,0.00,,,0.11,519.000000,,2013-09-23 19:02:00,
2013-09-23 13:12:00,50.0,33.0,-100.00,SW,227,14.0,21.0,51,0.00,,,0.11,519.000000,,2013-09-23 19:12:00,
2013-09-23 13:42:00,51.0,31.0,-100.00,SW,222,11.0,25.0,46,0.00,,,0.11,508.000000,,2013-09-23 19:42:00,
2013-09-23 13:53:00,51.0,31.0,-100.00,SW,222,11.0,25.0,46,0.00,,,0.11,508.000000,,2013-09-23 19:53:00,
2013-09-23 14:02:00,51.0,31.0,-100.00,SW,222,11.0,25.0,46,0.00,,,0.11,508.000000,,2013-09-23 20:02:00,
2013-09-23 14:12:00,51.0,31.0,-100.00,SW,222,11.0,25.0,46,0.00,,,0.11,508.000000,,2013-09-23 20:12:00,
2013-09-23 14:42:00,53.0,30.0,-100.00,SW,226,12.0,22.0,41,0.00,,,0.10,474.000000,,2013-09-23 20:42:00,
2013-09-23 14:52:00,53.0,30.0,-100.00,SW,226,12.0,22.0,41,0.00,,,0.10,474.000000,,2013-09-23 20:52:00,
2013-09-23 15:02:00,53.0,30.0,-100.00,SW,226,12.0,22.0,41,0.00,,,0.10,474.000000,,2013-09-23 21:02:00,
2013-09-23 15:11:00,53.0,30.0,-100.00,SW,226,12.0,22.0,41,0.00,,,0.10,474.000000,,2013-09-23 21:11:00,
2013-09-23 15:44:00,54.0,30.0,-100.00,SW,236,9.0,23.0,39,0.00,,,0.09,371.000000,,2013-09-23 21:44:00,
2013-09-23 15:54:00,54.0,30.0,-100.00,SW,236,9.0,23.0,39,0.00,,,0.09,371.000000,,2013-09-23 21:54:00,
2013-09-23 16:03:00,54.0,30.0,-100.00,SW,236,9.0,23.0,39,0.00,,,0.09,371.000000,,2013-09-23 22:03:00,
2013-09-23 16:13:00,54.0,30.0,-100.00,SW,236,9.0,23.0,39,0.00,,,0.09,371.000000,,2013-09-23 22:13:00,
2013-09-23 16:43:00,56.0,31.0,-100.00,SW,234,9.0,22.0,38,0.00,,,0.09,287.000000,,2013-09-23 22:43:00,
2013-09-23 16:54:00,56.0,31.0,-100.00,SW,234,9.0,22.0,38,0.00,,,0.09,287.000000,,2013-09-23 22:54:00,
2013-09-23 17:02:00,56.0,31.0,-100.00,SW,234,9.0,22.0,38,0.00,,,0.09,287.000000,,2013-09-23 23:02:00,
2013-09-23 17:12:00,56.0,31.0,-100.00,SW,234,9.0,22.0,38,0.00,,,0.09,287.000000,,2013-09-23 23:12:00,
2013-09-23 17:42:00,54.0,31.0,-100.00,WNW,303,5.0,17.0,41,0.00,,,0.09,269.000000,,2013-09-23 23:42:00,
2013-09-23 17:54:00,54.0,31.0,-100.00,WNW,303,5.0,17.0,41,0.00,,,0.09,269.000000,,2013-09-23 23:54:00,
2013-09-23 18:01:00,54.0,31.0,-100.00,WNW,303,5.0,17.0,41,0.00,,,0.09,269.000000,,2013-09-24 00:01:00,
2013-09-23 18:11:00,54.0,31.0,-100.00,WNW,303,5.0,17.0,41,0.00,,,0.09,269.000000,,2013-09-24 00:11:00,
2013-09-23 18:43:00,54.0,33.0,-100.00,NW,311,4.0,9.0,45,0.00,,,0.08,182.000000,,2013-09-24 00:43:00,
2013-09-23 18:52:00,54.0,33.0,-100.00,NW,311,4.0,9.0,45,0.00,,,0.08,182.000000,,2013-09-24 00:52:00,
2013-09-23 19:01:00,54.0,33.0,-100.00,NW,311,4.0,9.0,45,0.00,,,0.08,182.000000,,2013-09-24 01:01:00,
2013-09-23 19:12:00,54.0,33.0,-100.00,NW,311,4.0,9.0,45,0.00,,,0.08,182.000000,,2013-09-24 01:12:00,
2013-09-23 19:43:00,50.0,33.0,-100.00,NW,317,2.0,7.0,52,0.00,,,0.05,49.000000,,2013-09-24 01:43:00,
2013-09-23 19:52:00,50.0,33.0,-100.00,NW,317,2.0,7.0,52,0.00,,,0.05,49.000000,,2013-09-24 01:52:00,
2013-09-23 20:02:00,50.0,33.0,-100.00,NW,317,2.0,7.0,52,0.00,,,0.05,49.000000,,2013-09-24 02:02:00,
2013-09-23 20:12:00,50.0,33.0,-100.00,NW,317,2.0,7.0,52,0.00,,,0.05,49.000000,,2013-09-24 02:12:00,
2013-09-23 20:42:00,48.0,31.0,-100.00,East,96,3.0,7.0,51,0.00,,,0.04,1.000000,,2013-09-24 02:42:00,
2013-09-23 20:52:00,48.0,31.0,-100.00,East,96,3.0,7.0,51,0.00,,,0.04,1.000000,,2013-09-24 02:52:00,
2013-09-23 21:02:00,48.0,31.0,-100.00,East,96,3.0,7.0,51,0.00,,,0.04,1.000000,,2013-09-24 03:02:00,
2013-09-23 21:12:00,48.0,31.0,-100.00,East,96,3.0,7.0,51,0.00,,,0.04,1.000000,,2013-09-24 03:12:00,
2013-09-23 21:45:00,46.0,32.0,-100.00,ESE,116,7.0,9.0,57,0.00,,,0.04,0.000000,,2013-09-24 03:45:00,
2013-09-23 21:54:00,46.0,32.0,-100.00,ESE,116,7.0,9.0,57,0.00,,,0.04,0.000000,,2013-09-24 03:54:00,
2013-09-23 22:04:00,46.0,32.0,-100.00,ESE,116,7.0,9.0,57,0.00,,,0.04,0.000000,,2013-09-24 04:04:00,
2013-09-23 22:14:00,46.0,32.0,-100.00,ESE,116,7.0,9.0,57,0.00,,,0.04,0.000000,,2013-09-24 04:14:00,
2013-09-23 22:44:00,46.0,34.0,-100.00,ESE,123,6.0,11.0,62,0.00,,,0.04,0.000000,,2013-09-24 04:44:00,
2013-09-23 22:54:00,46.0,34.0,-100.00,ESE,123,6.0,11.0,62,0.00,,,0.04,0.000000,,2013-09-24 04:54:00,
2013-09-23 23:03:00,46.0,34.0,-100.00,ESE,123,6.0,11.0,62,0.00,,,0.04,0.000000,,2013-09-24 05:03:00,
2013-09-23 23:13:00,46.0,34.0,-100.00,ESE,123,6.0,11.0,62,0.00,,,0.04,0.000000,,2013-09-24 05:13:00,
2013-09-23 23:43:00,44.0,33.0,-100.00,SE,141,3.0,9.0,66,0.00,,,0.04,0.000000,,2013-09-24 05:43:00,
2013-09-23 23:53:00,44.0,33.0,-100.00,SE,141,3.0,9.0,66,0.00,,,0.04,0.000000,,2013-09-24 05:53:00,